createdAt,value
2023-01-18T00:00:13.820Z,20.60
2023-01-18T00:03:01.219Z,23.30
2023-01-18T00:05:48.611Z,21.93
2023-01-18T00:08:36.856Z,22.10
2023-01-18T00:11:24.192Z,22.70
2023-01-18T00:14:11.531Z,18.73
2023-01-18T00:16:58.905Z,22.87
2023-01-18T00:19:46.238Z,20.60
2023-01-18T00:22:33.596Z,18.83
2023-01-18T00:25:22.348Z,20.30
2023-01-18T00:28:09.698Z,26.80
2023-01-18T00:30:57.073Z,20.83
2023-01-18T00:33:48.775Z,21.13
2023-01-18T00:36:36.172Z,23.00
2023-01-18T00:39:23.598Z,22.83
2023-01-18T00:42:29.778Z,22.47
2023-01-18T00:45:17.279Z,24.70
2023-01-18T00:48:04.753Z,24.13
2023-01-18T00:50:52.119Z,23.43
2023-01-18T00:53:39.699Z,21.73
2023-01-18T00:56:28.609Z,25.47
2023-01-18T00:59:15.984Z,23.27
2023-01-18T01:02:03.490Z,24.17
2023-01-18T01:05:09.947Z,27.93
2023-01-18T01:07:57.374Z,26.33
2023-01-18T01:10:46.197Z,22.90
2023-01-18T01:13:52.320Z,23.47
2023-01-18T01:16:58.564Z,21.53
2023-01-18T01:20:04.658Z,19.10
2023-01-18T01:23:10.972Z,25.20
2023-01-18T01:26:24.857Z,23.10
2023-01-18T01:29:12.332Z,27.43
2023-01-18T01:31:59.705Z,28.27
2023-01-18T01:34:47.072Z,26.97
2023-01-18T01:37:34.464Z,24.90
2023-01-18T01:40:21.833Z,28.50
2023-01-18T01:43:15.335Z,24.90
2023-01-18T01:46:04.049Z,29.47
2023-01-18T01:48:59.663Z,24.33
2023-01-18T01:51:48.224Z,24.43
2023-01-18T01:54:48.510Z,27.07
2023-01-18T01:57:38.662Z,26.53
2023-01-18T02:00:26.168Z,26.50
2023-01-18T02:03:17.898Z,24.97
2023-01-18T02:06:13.324Z,27.90
2023-01-18T02:09:05.923Z,30.83
2023-01-18T02:11:54.104Z,30.17
2023-01-18T02:14:41.900Z,30.30
2023-01-18T02:17:39.836Z,27.10
2023-01-18T02:20:39.378Z,28.80
2023-01-18T02:23:46.319Z,32.03
2023-01-18T02:26:53.850Z,25.93
2023-01-18T02:29:44.056Z,26.47
2023-01-18T02:32:34.197Z,27.67
2023-01-18T02:35:40.216Z,33.30
2023-01-18T02:38:30.094Z,28.60
2023-01-18T02:41:20.627Z,28.00
2023-01-18T02:44:34.261Z,28.50
2023-01-18T02:47:22.369Z,25.70
2023-01-18T02:50:10.147Z,27.57
2023-01-18T02:52:57.853Z,27.10
2023-01-18T02:55:48.425Z,26.60
2023-01-18T02:58:39.798Z,29.03
2023-01-18T03:01:36.452Z,28.90
2023-01-18T03:04:25.774Z,26.77
2023-01-18T03:07:22.084Z,27.13
2023-01-18T03:10:11.224Z,26.60
2023-01-18T03:13:25.104Z,32.67
2023-01-18T03:16:20.657Z,38.77
2023-01-18T03:19:32.424Z,32.00
2023-01-18T03:22:39.909Z,26.80
2023-01-18T03:25:33.986Z,32.30
2023-01-18T03:28:52.578Z,29.33
2023-01-18T03:32:02.619Z,28.03
2023-01-18T03:34:49.916Z,28.50
2023-01-18T03:37:39.638Z,27.13
2023-01-18T03:40:29.148Z,26.27
2023-01-18T03:43:17.276Z,30.40
2023-01-18T03:46:05.349Z,26.67
2023-01-18T03:48:52.948Z,27.47
2023-01-18T03:51:47.261Z,24.00
2023-01-18T03:54:46.124Z,22.53
2023-01-18T03:57:42.175Z,28.80
2023-01-18T04:00:31.390Z,26.80
2023-01-18T04:03:18.844Z,25.60
2023-01-18T04:06:07.039Z,25.50
2023-01-18T04:08:54.445Z,26.17
2023-01-18T04:11:41.854Z,24.47
2023-01-18T04:14:29.232Z,26.77
2023-01-18T04:17:17.228Z,25.57
2023-01-18T04:20:04.930Z,30.87
2023-01-18T04:22:53.166Z,26.13
2023-01-18T04:25:40.867Z,22.87
2023-01-18T04:28:28.813Z,25.33
2023-01-18T04:31:16.318Z,21.43
2023-01-18T04:34:03.722Z,23.07
2023-01-18T04:36:51.720Z,21.77
2023-01-18T04:39:39.078Z,24.07
2023-01-18T04:42:26.634Z,28.03
2023-01-18T04:45:14.168Z,22.33
2023-01-18T04:48:01.846Z,24.43
2023-01-18T04:50:49.192Z,28.27
2023-01-18T04:53:36.557Z,22.33
2023-01-18T04:56:23.950Z,28.97
2023-01-18T04:59:15.898Z,20.47
2023-01-18T05:02:03.404Z,25.13
2023-01-18T05:04:50.845Z,24.93
2023-01-18T05:07:38.227Z,24.80
2023-01-18T05:10:25.641Z,26.47
2023-01-18T05:13:13.005Z,20.47
2023-01-18T05:16:03.340Z,23.73
2023-01-18T05:18:52.546Z,24.50
2023-01-18T05:21:39.895Z,23.97
2023-01-18T05:24:29.795Z,26.40
2023-01-18T05:27:17.405Z,23.13
2023-01-18T05:30:06.803Z,26.80
2023-01-18T05:32:54.374Z,22.93
2023-01-18T05:35:41.791Z,28.03
2023-01-18T05:38:29.208Z,23.07
2023-01-18T05:41:16.594Z,27.53
2023-01-18T05:44:04.059Z,48.87
2023-01-18T05:46:51.449Z,48.07
2023-01-18T05:49:41.074Z,34.27
2023-01-18T05:52:29.259Z,30.60
2023-01-18T05:55:16.689Z,31.00
2023-01-18T05:58:04.275Z,28.83
2023-01-18T06:00:51.792Z,24.13
2023-01-18T06:03:39.254Z,27.10
2023-01-18T06:06:26.697Z,23.87
2023-01-18T06:09:14.073Z,27.93
2023-01-18T06:12:01.448Z,31.40
2023-01-18T06:14:48.817Z,27.23
2023-01-18T06:17:36.606Z,27.63
2023-01-18T06:20:23.960Z,26.27
2023-01-18T06:23:11.316Z,23.33
2023-01-18T06:25:58.706Z,27.47
2023-01-18T06:28:46.131Z,23.20
2023-01-18T06:31:33.531Z,28.50
2023-01-18T06:34:20.876Z,31.17
2023-01-18T06:37:08.433Z,29.10
2023-01-18T06:39:55.824Z,24.23
2023-01-18T06:42:43.205Z,32.37
2023-01-18T06:45:30.696Z,30.17
2023-01-18T06:48:18.088Z,28.13
2023-01-18T06:51:05.535Z,29.00
2023-01-18T06:53:52.912Z,26.87
2023-01-18T06:56:40.499Z,26.40
2023-01-18T06:59:28.490Z,27.83
2023-01-18T07:02:16.596Z,26.83
2023-01-18T07:05:05.021Z,39.90
2023-01-18T07:07:52.452Z,56.80
2023-01-18T07:10:39.791Z,47.33
2023-01-18T07:13:27.191Z,41.23
2023-01-18T07:16:17.944Z,29.93
2023-01-18T07:19:05.936Z,32.37
2023-01-18T07:21:56.081Z,37.17
2023-01-18T07:24:43.496Z,52.87
2023-01-18T07:27:31.118Z,44.67
2023-01-18T07:30:18.639Z,58.00
2023-01-18T07:33:06.953Z,47.30
2023-01-18T07:35:55.329Z,27.90
2023-01-18T07:38:43.001Z,23.53
2023-01-18T07:41:31.135Z,27.00
2023-01-18T07:44:18.748Z,24.60
2023-01-18T07:47:07.816Z,26.80
2023-01-18T07:49:55.189Z,24.80
2023-01-18T07:52:42.567Z,24.83
2023-01-18T07:55:29.913Z,27.77
2023-01-18T07:58:18.068Z,26.47
2023-01-18T08:01:06.898Z,24.70
2023-01-18T08:03:54.657Z,25.20
2023-01-18T08:06:42.129Z,28.57
2023-01-18T08:09:29.492Z,28.27
2023-01-18T08:12:18.578Z,26.80
2023-01-18T08:15:06.279Z,25.67
2023-01-18T08:17:55.367Z,22.43
2023-01-18T08:20:49.365Z,25.97
2023-01-18T08:23:37.412Z,28.23
2023-01-18T08:26:24.827Z,22.17
2023-01-18T08:29:12.182Z,23.67
2023-01-18T08:32:00.694Z,24.20
2023-01-18T08:34:48.057Z,25.97
2023-01-18T08:37:35.587Z,22.17
2023-01-18T08:40:23.606Z,19.97
2023-01-18T08:43:11.814Z,22.90
2023-01-18T08:45:59.273Z,26.47
2023-01-18T08:48:49.521Z,28.07
2023-01-18T08:51:36.969Z,25.80
2023-01-18T08:54:24.757Z,23.70
2023-01-18T08:57:12.146Z,26.07
2023-01-18T08:59:59.507Z,24.67
2023-01-18T09:02:48.822Z,23.30
2023-01-18T09:05:36.617Z,23.40
2023-01-18T09:08:24.022Z,23.90
2023-01-18T09:11:11.839Z,24.87
2023-01-18T09:14:01.310Z,21.17
2023-01-18T09:16:50.069Z,23.90
2023-01-18T09:19:37.448Z,21.77
2023-01-18T09:22:24.789Z,21.50
2023-01-18T09:25:12.205Z,21.43
2023-01-18T09:28:00.105Z,19.37
2023-01-18T09:30:47.867Z,20.60
2023-01-18T09:33:37.878Z,25.80
2023-01-18T09:36:28.409Z,25.03
2023-01-18T09:39:15.878Z,20.03
2023-01-18T09:42:04.551Z,26.87
2023-01-18T09:44:53.275Z,24.93
2023-01-18T09:47:44.087Z,28.90
2023-01-18T09:50:33.554Z,30.27
2023-01-18T09:53:26.995Z,26.90
2023-01-18T09:56:40.619Z,26.80
2023-01-18T09:59:33.294Z,27.93
2023-01-18T10:02:25.018Z,40.00
2023-01-18T10:05:14.297Z,36.97
2023-01-18T10:08:04.314Z,31.50
2023-01-18T10:11:03.319Z,35.53
2023-01-18T10:14:05.502Z,33.53
2023-01-18T10:16:56.658Z,29.23
2023-01-18T10:19:44.208Z,25.03
2023-01-18T10:22:39.403Z,22.53
2023-01-18T10:25:35.606Z,20.87
2023-01-18T10:28:39.664Z,17.43
2023-01-18T10:31:41.210Z,20.03
2023-01-18T10:34:31.845Z,18.97
2023-01-18T10:37:19.174Z,21.20
2023-01-18T10:40:09.186Z,15.97
2023-01-18T10:43:02.294Z,17.70
2023-01-18T10:45:50.304Z,25.63
2023-01-18T10:48:38.729Z,15.93
2023-01-18T10:51:26.089Z,15.40
2023-01-18T10:54:19.632Z,22.77
2023-01-18T10:57:09.175Z,21.10
2023-01-18T10:59:57.603Z,25.93
2023-01-18T11:02:45.366Z,15.17
2023-01-18T11:05:38.029Z,22.47
2023-01-18T11:08:32.756Z,20.27
2023-01-18T11:11:51.940Z,14.27
2023-01-18T11:14:39.509Z,16.93
2023-01-18T11:17:26.900Z,18.13
2023-01-18T11:20:19.935Z,15.67
2023-01-18T11:23:14.823Z,13.50
2023-01-18T11:26:15.603Z,14.90
2023-01-18T11:29:04.897Z,16.03
2023-01-18T11:31:52.897Z,14.27
2023-01-18T11:34:43.448Z,15.30
2023-01-18T11:37:38.101Z,16.30
2023-01-18T11:40:30.057Z,17.13
2023-01-18T11:43:27.867Z,12.90
2023-01-18T11:46:41.484Z,17.63
2023-01-18T11:49:37.713Z,14.67
2023-01-18T11:52:42.301Z,16.03
2023-01-18T11:55:32.578Z,17.80
2023-01-18T11:58:25.484Z,14.80
2023-01-18T12:01:21.994Z,17.93
2023-01-18T12:04:14.714Z,16.53
2023-01-18T12:07:11.479Z,14.43
2023-01-18T12:10:01.212Z,15.30
2023-01-18T12:12:59.133Z,18.03
2023-01-18T12:15:52.317Z,13.77
2023-01-18T12:18:57.271Z,16.90
2023-01-18T12:22:04.354Z,14.73
2023-01-18T12:25:10.355Z,15.43
2023-01-18T12:28:03.795Z,13.13
2023-01-18T12:30:57.479Z,16.07
2023-01-18T12:34:03.400Z,15.77
2023-01-18T12:37:09.428Z,15.70
2023-01-18T12:40:16.865Z,14.07
2023-01-18T12:43:11.046Z,14.30
2023-01-18T12:46:03.362Z,16.27
2023-01-18T12:48:56.503Z,15.90
2023-01-18T12:51:44.925Z,14.93
2023-01-18T12:54:39.669Z,17.47
2023-01-18T12:57:27.496Z,16.97
2023-01-18T13:00:17.953Z,13.40
2023-01-18T13:03:10.191Z,14.63
2023-01-18T13:05:57.600Z,17.63
2023-01-18T13:08:47.804Z,16.97
2023-01-18T13:11:36.549Z,15.60
2023-01-18T13:14:43.639Z,15.17
2023-01-18T13:17:38.485Z,16.10
2023-01-18T13:20:48.851Z,13.70
2023-01-18T13:23:45.125Z,15.43
2023-01-18T13:26:33.800Z,15.87
2023-01-18T13:29:28.293Z,16.67
2023-01-18T13:32:35.081Z,16.40
2023-01-18T13:35:28.720Z,17.83
2023-01-18T13:38:19.439Z,23.70
2023-01-18T13:41:08.434Z,19.43
2023-01-18T13:44:01.932Z,14.97
2023-01-18T13:46:49.352Z,14.63
2023-01-18T13:49:46.257Z,16.00
2023-01-18T13:52:35.499Z,12.37
2023-01-18T13:55:31.087Z,14.90
2023-01-18T13:58:21.621Z,16.67
2023-01-18T14:01:20.236Z,14.07
2023-01-18T14:04:10.796Z,13.83
2023-01-18T14:06:59.732Z,16.47
2023-01-18T14:09:48.673Z,13.30
2023-01-18T14:12:48.306Z,12.90
2023-01-18T14:15:45.313Z,13.87
2023-01-18T14:18:33.318Z,17.47
2023-01-18T14:21:25.885Z,13.80
2023-01-18T14:24:32.155Z,13.73
2023-01-18T14:27:24.325Z,10.83
2023-01-18T14:30:14.727Z,14.33
2023-01-18T14:33:20.888Z,14.63
2023-01-18T14:36:18.804Z,11.97
2023-01-18T14:39:13.057Z,12.40
2023-01-18T14:42:02.585Z,13.57
2023-01-18T14:44:58.416Z,16.33
2023-01-18T14:47:47.721Z,13.30
2023-01-18T14:50:38.049Z,12.93
2023-01-18T14:53:29.126Z,12.80
2023-01-18T14:56:16.483Z,17.27
2023-01-18T14:59:18.646Z,12.83
2023-01-18T15:02:16.341Z,16.37
2023-01-18T15:05:10.658Z,21.70
2023-01-18T15:07:58.599Z,28.77
2023-01-18T15:10:46.311Z,38.97
2023-01-18T15:13:34.967Z,23.80
2023-01-18T15:16:23.874Z,17.77
2023-01-18T15:19:19.643Z,14.40
2023-01-18T15:22:08.635Z,14.17
2023-01-18T15:24:57.301Z,16.30
2023-01-18T15:27:48.809Z,17.07
2023-01-18T15:30:36.197Z,14.23
2023-01-18T15:33:25.188Z,13.40
2023-01-18T15:36:14.054Z,15.30
2023-01-18T15:39:01.504Z,16.53
2023-01-18T15:41:49.530Z,16.27
2023-01-18T15:44:36.902Z,15.60
2023-01-18T15:47:36.902Z,16.03
2023-01-18T15:50:26.872Z,13.00
2023-01-18T15:53:20.286Z,14.07
2023-01-18T15:56:16.740Z,14.30
2023-01-18T15:59:09.767Z,15.50
2023-01-18T16:02:05.050Z,15.23
2023-01-18T16:05:08.511Z,15.07
2023-01-18T16:08:16.146Z,15.73
2023-01-18T16:11:03.828Z,14.97
2023-01-18T16:13:56.800Z,14.80
2023-01-18T16:16:44.377Z,16.37
2023-01-18T16:19:34.638Z,17.57
2023-01-18T16:22:22.043Z,16.97
2023-01-18T16:25:10.597Z,17.07
2023-01-18T16:28:00.075Z,19.83
2023-01-18T16:30:51.880Z,28.40
2023-01-18T16:33:39.324Z,23.17
2023-01-18T16:36:32.025Z,19.40
2023-01-18T16:39:20.090Z,30.83
2023-01-18T16:42:07.861Z,22.50
2023-01-18T16:44:55.345Z,19.43
2023-01-18T16:47:42.741Z,18.43
2023-01-18T16:50:30.144Z,17.70
2023-01-18T16:53:17.659Z,17.27
2023-01-18T16:56:05.107Z,17.37
2023-01-18T16:58:52.560Z,20.10
2023-01-18T17:01:41.215Z,14.17
2023-01-18T17:04:30.277Z,13.87
2023-01-18T17:07:17.694Z,15.30
2023-01-18T17:10:11.811Z,12.83
2023-01-18T17:13:00.238Z,16.90
2023-01-18T17:15:47.965Z,15.73
2023-01-18T17:18:35.298Z,14.23
2023-01-18T17:21:22.752Z,15.73
2023-01-18T17:24:10.988Z,14.13
2023-01-18T17:26:58.357Z,13.33
2023-01-18T17:29:45.723Z,15.70
2023-01-18T17:32:33.118Z,16.30
2023-01-18T17:35:21.850Z,15.87
2023-01-18T17:38:17.274Z,14.20
2023-01-18T17:41:22.847Z,14.33
2023-01-18T17:44:13.827Z,16.20
2023-01-18T17:47:01.720Z,13.93
2023-01-18T17:49:49.039Z,16.97
2023-01-18T17:52:37.120Z,17.20
2023-01-18T17:55:30.719Z,15.20
2023-01-18T17:58:21.928Z,16.73
2023-01-18T18:01:10.357Z,14.57
2023-01-18T18:03:57.826Z,18.43
2023-01-18T18:06:53.688Z,26.20
2023-01-18T18:09:42.653Z,24.33
2023-01-18T18:12:33.858Z,15.57
2023-01-18T18:15:23.383Z,13.77
2023-01-18T18:18:22.708Z,22.80
2023-01-18T18:21:11.027Z,16.77
2023-01-18T18:23:58.645Z,18.23
2023-01-18T18:26:45.989Z,46.57
2023-01-18T18:29:33.614Z,24.15
2023-01-18T18:32:20.964Z,18.83
2023-01-18T18:35:23.927Z,16.20
2023-01-18T18:38:15.296Z,18.60
2023-01-18T18:41:03.799Z,16.77
2023-01-18T18:43:51.146Z,14.53
2023-01-18T18:46:38.648Z,18.33
2023-01-18T18:49:26.320Z,21.30
2023-01-18T18:52:13.675Z,17.80
2023-01-18T18:55:01.010Z,17.10
2023-01-18T18:57:48.447Z,18.63
2023-01-18T19:00:36.227Z,20.03
2023-01-18T19:03:23.661Z,17.95
2023-01-18T19:06:11.346Z,16.50
2023-01-18T19:08:58.759Z,19.67
2023-01-18T19:11:54.473Z,14.57
2023-01-18T19:14:42.383Z,16.80
2023-01-18T19:17:31.445Z,18.10
2023-01-18T19:20:19.875Z,17.30
2023-01-18T19:23:07.426Z,17.53
2023-01-18T19:25:55.415Z,16.03
2023-01-18T19:28:43.433Z,15.00
2023-01-18T19:31:30.997Z,16.17
2023-01-18T19:34:21.012Z,19.83
2023-01-18T19:37:08.391Z,17.47
2023-01-18T19:39:55.781Z,17.17
2023-01-18T19:42:44.400Z,19.60
2023-01-18T19:45:32.437Z,20.90
2023-01-18T19:48:19.866Z,18.03
2023-01-18T19:51:21.307Z,17.33
2023-01-18T19:54:10.990Z,17.53
2023-01-18T19:56:58.409Z,22.10
2023-01-18T19:59:45.760Z,17.33
2023-01-18T20:02:34.159Z,23.73
2023-01-18T20:05:21.704Z,16.47
2023-01-18T20:08:09.100Z,15.20
2023-01-18T20:10:56.647Z,16.90
2023-01-18T20:13:48.399Z,20.23
2023-01-18T20:16:36.473Z,14.13
2023-01-18T20:19:23.885Z,13.20
2023-01-18T20:22:11.334Z,22.20
2023-01-18T20:24:59.019Z,16.73
2023-01-18T20:27:46.392Z,16.47
2023-01-18T20:30:33.795Z,17.47
2023-01-18T20:33:21.182Z,19.17
2023-01-18T20:36:09.061Z,16.50
2023-01-18T20:38:56.577Z,17.87
2023-01-18T20:41:44.381Z,18.20
2023-01-18T20:44:31.909Z,17.43
2023-01-18T20:47:19.299Z,14.73
2023-01-18T20:50:06.945Z,14.23
2023-01-18T20:52:54.422Z,21.95
2023-01-18T20:55:41.874Z,15.53
2023-01-18T20:58:29.337Z,19.97
2023-01-18T21:01:16.815Z,14.50
2023-01-18T21:04:04.662Z,16.23
2023-01-18T21:06:52.082Z,17.57
2023-01-18T21:09:39.483Z,18.23
2023-01-18T21:12:27.139Z,21.17
2023-01-18T21:15:14.537Z,16.40
2023-01-18T21:18:04.103Z,16.00
2023-01-18T21:20:55.611Z,17.03
2023-01-18T21:23:43.024Z,16.23
2023-01-18T21:26:30.423Z,16.03
2023-01-18T21:29:17.885Z,16.57
2023-01-18T21:32:05.509Z,15.20
2023-01-18T21:34:52.966Z,18.40
2023-01-18T21:37:40.794Z,17.67
2023-01-18T21:40:28.192Z,14.40
2023-01-18T21:43:38.415Z,16.80
2023-01-18T21:46:25.768Z,16.23
2023-01-18T21:49:47.179Z,16.47
2023-01-18T21:52:59.515Z,16.63
2023-01-18T21:55:47.914Z,18.07
2023-01-18T21:58:53.965Z,14.77
2023-01-18T22:01:43.626Z,19.73
2023-01-18T22:04:50.063Z,17.53
2023-01-18T22:07:37.398Z,17.00
2023-01-18T22:10:24.767Z,16.23
2023-01-18T22:13:12.129Z,17.90
2023-01-18T22:16:03.538Z,19.77
2023-01-18T22:18:51.171Z,17.10
2023-01-18T22:21:38.968Z,17.90
2023-01-18T22:24:26.457Z,17.13
2023-01-18T22:27:13.782Z,23.37
2023-01-18T22:30:01.837Z,18.80
2023-01-18T22:32:49.443Z,30.10
2023-01-18T22:35:36.970Z,19.57
2023-01-18T22:38:24.414Z,14.90
2023-01-18T22:41:22.329Z,17.37
2023-01-18T22:44:16.010Z,17.37
2023-01-18T22:47:03.440Z,16.23
2023-01-18T22:49:50.776Z,17.50
2023-01-18T22:52:38.160Z,16.43
2023-01-18T22:55:25.576Z,16.47
2023-01-18T22:58:13.112Z,17.57
2023-01-18T23:01:00.611Z,20.90
2023-01-18T23:03:48.906Z,18.93
2023-01-18T23:06:46.125Z,17.23
2023-01-18T23:09:33.504Z,18.80
2023-01-18T23:12:20.888Z,18.70
2023-01-18T23:15:27.476Z,16.83
2023-01-18T23:18:14.857Z,19.50
2023-01-18T23:21:02.344Z,23.13
2023-01-18T23:23:49.743Z,14.60
2023-01-18T23:26:37.081Z,19.13
2023-01-18T23:29:24.447Z,21.17
2023-01-18T23:32:11.816Z,17.50
2023-01-18T23:34:59.915Z,21.53
2023-01-18T23:37:47.263Z,19.27
2023-01-18T23:40:53.517Z,19.50
2023-01-18T23:43:59.962Z,19.33
2023-01-18T23:47:06.383Z,20.13
2023-01-18T23:50:12.591Z,18.43
2023-01-18T23:53:19.719Z,18.23
2023-01-18T23:56:07.276Z,18.63
2023-01-18T23:58:56.341Z,17.50
